createdAt,value
2022-08-26T00:01:56.062Z,4.80
2022-08-26T00:04:23.643Z,5.33
2022-08-26T00:06:50.352Z,4.93
2022-08-26T00:09:16.959Z,5.50
2022-08-26T00:11:44.225Z,5.13
2022-08-26T00:14:11.805Z,5.53
2022-08-26T00:16:40.996Z,5.40
2022-08-26T00:19:13.808Z,5.40
2022-08-26T00:21:41.164Z,5.67
2022-08-26T00:24:07.500Z,5.00
2022-08-26T00:26:34.851Z,4.87
2022-08-26T00:29:01.392Z,5.47
2022-08-26T00:31:27.843Z,5.13
2022-08-26T00:33:57.692Z,5.87
2022-08-26T00:36:24.060Z,5.73
2022-08-26T00:38:50.463Z,5.27
2022-08-26T00:41:18.807Z,5.27
2022-08-26T00:43:47.759Z,5.70
2022-08-26T00:46:16.973Z,5.50
2022-08-26T00:48:44.959Z,5.50
2022-08-26T00:51:14.722Z,6.40
2022-08-26T00:53:45.335Z,5.30
2022-08-26T00:56:20.630Z,5.80
2022-08-26T00:58:48.029Z,5.77
2022-08-26T01:01:15.017Z,5.63
2022-08-26T01:03:41.961Z,5.40
2022-08-26T01:06:12.616Z,5.73
2022-08-26T01:08:39.710Z,5.30
2022-08-26T01:11:06.192Z,5.60
2022-08-26T01:13:36.127Z,5.37
2022-08-26T01:16:03.970Z,5.63
2022-08-26T01:18:31.461Z,6.00
2022-08-26T01:20:57.952Z,5.40
2022-08-26T01:23:28.748Z,5.80
2022-08-26T01:25:57.267Z,6.13
2022-08-26T01:28:29.441Z,5.43
2022-08-26T01:30:57.547Z,5.77
2022-08-26T01:33:28.051Z,6.50
2022-08-26T01:35:55.033Z,5.80
2022-08-26T01:38:23.655Z,5.73
2022-08-26T01:40:50.198Z,5.90
2022-08-26T01:43:19.948Z,5.33
2022-08-26T01:45:48.259Z,5.87
2022-08-26T01:48:17.509Z,5.70
2022-08-26T01:50:45.108Z,5.50
2022-08-26T01:53:12.857Z,5.87
2022-08-26T01:55:41.605Z,5.57
2022-08-26T01:58:09.812Z,5.60
2022-08-26T02:00:36.449Z,5.87
2022-08-26T02:03:17.221Z,6.40
2022-08-26T02:06:00.740Z,5.73
2022-08-26T02:08:31.007Z,5.63
2022-08-26T02:10:57.465Z,5.90
2022-08-26T02:13:25.469Z,5.53
2022-08-26T02:15:52.651Z,5.77
2022-08-26T02:18:19.229Z,5.73
2022-08-26T02:20:45.652Z,5.87
2022-08-26T02:23:12.052Z,6.00
2022-08-26T02:25:45.882Z,6.13
2022-08-26T02:28:12.901Z,6.17
2022-08-26T02:30:40.348Z,6.70
2022-08-26T02:33:07.060Z,5.97
2022-08-26T02:35:35.341Z,6.07
2022-08-26T02:38:02.545Z,5.80
2022-08-26T02:40:40.460Z,6.77
2022-08-26T02:43:08.528Z,5.67
2022-08-26T02:45:35.661Z,6.07
2022-08-26T02:48:09.164Z,6.17
2022-08-26T02:50:36.754Z,6.33
2022-08-26T02:53:03.189Z,5.93
2022-08-26T02:55:29.637Z,5.90
2022-08-26T02:57:56.072Z,6.30
2022-08-26T03:00:22.585Z,6.50
2022-08-26T03:02:50.355Z,6.07
2022-08-26T03:05:19.637Z,6.37
2022-08-26T03:07:46.247Z,6.33
2022-08-26T03:10:13.129Z,6.50
2022-08-26T03:12:41.329Z,6.80
2022-08-26T03:15:16.463Z,6.37
2022-08-26T03:17:44.857Z,6.27
2022-08-26T03:20:11.400Z,5.77
2022-08-26T03:22:40.257Z,6.73
2022-08-26T03:25:08.100Z,6.27
2022-08-26T03:27:34.747Z,6.30
2022-08-26T03:30:19.949Z,6.90
2022-08-26T03:32:46.707Z,6.60
2022-08-26T03:35:13.138Z,6.53
2022-08-26T03:37:40.357Z,6.37
2022-08-26T03:40:09.002Z,6.50
2022-08-26T03:42:36.569Z,6.20
2022-08-26T03:45:03.755Z,6.07
2022-08-26T03:47:31.075Z,6.50
2022-08-26T03:49:57.551Z,6.40
2022-08-26T03:52:24.258Z,5.97
2022-08-26T03:54:51.185Z,6.70
2022-08-26T03:57:17.666Z,6.63
2022-08-26T03:59:45.819Z,6.43
2022-08-26T04:02:12.183Z,6.83
2022-08-26T04:04:38.862Z,7.03
2022-08-26T04:07:05.248Z,6.47
2022-08-26T04:09:31.751Z,6.50
2022-08-26T04:12:03.533Z,6.63
2022-08-26T04:14:31.109Z,6.50
2022-08-26T04:16:58.653Z,6.53
2022-08-26T04:19:25.388Z,6.80
2022-08-26T04:21:55.307Z,6.83
2022-08-26T04:24:22.633Z,6.70
2022-08-26T04:26:49.564Z,7.30
2022-08-26T04:29:20.884Z,6.47
2022-08-26T04:31:51.714Z,6.53
2022-08-26T04:34:28.427Z,7.10
2022-08-26T04:36:56.015Z,6.90
2022-08-26T04:39:22.616Z,6.30
2022-08-26T04:41:50.866Z,6.50
2022-08-26T04:44:17.838Z,7.20
2022-08-26T04:46:44.324Z,6.93
2022-08-26T04:49:11.634Z,8.13
2022-08-26T04:51:39.015Z,7.43
2022-08-26T04:54:06.974Z,7.47
2022-08-26T04:56:35.414Z,7.33
2022-08-26T04:59:02.938Z,7.33
2022-08-26T05:01:31.424Z,7.10
2022-08-26T05:03:58.475Z,7.20
2022-08-26T05:06:26.014Z,7.03
2022-08-26T05:08:53.006Z,7.07
2022-08-26T05:11:19.635Z,7.67
2022-08-26T05:13:48.489Z,7.07
2022-08-26T05:16:15.411Z,6.57
2022-08-26T05:18:43.499Z,6.47
2022-08-26T05:21:21.265Z,6.77
2022-08-26T05:23:48.371Z,6.60
2022-08-26T05:26:16.490Z,7.00
2022-08-26T05:28:43.161Z,7.03
2022-08-26T05:31:17.071Z,6.67
2022-08-26T05:33:44.499Z,6.73
2022-08-26T05:36:16.390Z,6.63
2022-08-26T05:38:43.927Z,6.70
2022-08-26T05:41:18.015Z,6.80
2022-08-26T05:43:44.598Z,6.27
2022-08-26T05:46:11.062Z,7.00
2022-08-26T05:48:37.847Z,6.17
2022-08-26T05:51:06.087Z,6.90
2022-08-26T05:53:33.012Z,6.70
2022-08-26T05:55:59.468Z,6.50
2022-08-26T05:58:26.935Z,6.80
2022-08-26T06:00:57.462Z,6.97
2022-08-26T06:03:23.936Z,6.33
2022-08-26T06:05:50.327Z,6.83
2022-08-26T06:08:19.280Z,6.70
2022-08-26T06:10:52.873Z,7.10
2022-08-26T06:13:31.991Z,6.93
2022-08-26T06:15:59.303Z,6.53
2022-08-26T06:18:27.893Z,6.90
2022-08-26T06:20:57.609Z,6.20
2022-08-26T06:23:43.175Z,7.00
2022-08-26T06:26:11.055Z,7.10
2022-08-26T06:28:37.724Z,6.40
2022-08-26T06:31:04.498Z,7.47
2022-08-26T06:33:32.406Z,7.10
2022-08-26T06:35:58.970Z,7.20
2022-08-26T06:38:25.422Z,6.77
2022-08-26T06:40:54.792Z,7.17
2022-08-26T06:43:22.684Z,6.43
2022-08-26T06:45:50.105Z,6.53
2022-08-26T06:48:18.204Z,6.40
2022-08-26T06:50:45.239Z,6.70
2022-08-26T06:53:12.807Z,6.27
2022-08-26T06:55:43.237Z,6.60
2022-08-26T06:58:11.192Z,6.57
2022-08-26T07:00:38.482Z,5.83
2022-08-26T07:03:08.464Z,6.10
2022-08-26T07:05:35.898Z,6.00
2022-08-26T07:08:03.017Z,6.43
2022-08-26T07:10:29.619Z,5.60
2022-08-26T07:12:56.028Z,6.20
2022-08-26T07:15:27.191Z,5.87
2022-08-26T07:17:58.436Z,5.93
2022-08-26T07:20:25.015Z,5.70
2022-08-26T07:22:51.460Z,6.37
2022-08-26T07:25:19.275Z,5.47
2022-08-26T07:27:46.643Z,5.77
2022-08-26T07:30:20.749Z,6.13
2022-08-26T07:32:47.447Z,5.17
2022-08-26T07:35:14.562Z,5.70
2022-08-26T07:37:40.941Z,5.43
2022-08-26T07:40:07.627Z,5.37
2022-08-26T07:42:35.816Z,5.07
2022-08-26T07:45:02.212Z,5.13
2022-08-26T07:47:28.610Z,5.00
2022-08-26T07:49:56.194Z,4.93
2022-08-26T07:52:26.374Z,4.80
2022-08-26T07:54:53.347Z,4.95
2022-08-26T07:57:19.741Z,5.13
2022-08-26T07:59:47.354Z,5.43
2022-08-26T08:02:13.707Z,5.20
2022-08-26T08:04:40.268Z,5.40
2022-08-26T08:07:10.575Z,4.68
2022-08-26T08:09:38.413Z,5.07
2022-08-26T08:12:07.284Z,5.38
2022-08-26T08:14:36.423Z,4.95
2022-08-26T08:17:04.306Z,5.45
2022-08-26T08:19:36.766Z,5.88
2022-08-26T08:22:17.085Z,5.20
2022-08-26T08:24:44.918Z,5.43
2022-08-26T08:27:11.313Z,5.50
2022-08-26T08:29:38.592Z,5.10
2022-08-26T08:32:05.378Z,5.43
2022-08-26T08:34:32.164Z,5.80
2022-08-26T08:36:59.377Z,5.22
2022-08-26T08:39:26.610Z,5.60
2022-08-26T08:42:12.215Z,5.40
2022-08-26T08:44:42.168Z,5.10
2022-08-26T08:47:18.095Z,5.45
2022-08-26T08:49:44.664Z,5.50
2022-08-26T08:52:18.287Z,5.35
2022-08-26T08:54:46.301Z,5.20
2022-08-26T08:57:17.353Z,5.70
2022-08-26T08:59:54.887Z,5.47
2022-08-26T09:02:30.477Z,5.67
2022-08-26T09:05:15.334Z,6.00
2022-08-26T09:07:54.125Z,5.67
2022-08-26T09:10:21.466Z,5.30
2022-08-26T09:12:50.572Z,5.43
2022-08-26T09:15:30.397Z,5.45
2022-08-26T09:18:10.917Z,5.20
2022-08-26T09:20:37.395Z,5.53
2022-08-26T09:23:03.816Z,5.53
2022-08-26T09:25:31.426Z,5.95
2022-08-26T09:27:58.014Z,5.88
2022-08-26T09:30:26.588Z,5.50
2022-08-26T09:33:10.814Z,5.07
2022-08-26T09:35:46.913Z,5.53
2022-08-26T09:38:27.990Z,5.10
2022-08-26T09:41:02.235Z,5.63
2022-08-26T09:43:31.647Z,5.60
2022-08-26T09:46:13.185Z,5.60
2022-08-26T09:48:41.465Z,5.72
2022-08-26T09:51:23.115Z,5.20
2022-08-26T09:53:51.248Z,5.80
2022-08-26T09:56:25.554Z,5.35
2022-08-26T09:58:54.635Z,5.28
2022-08-26T10:01:24.095Z,5.75
2022-08-26T10:03:51.386Z,5.50
2022-08-26T10:06:17.925Z,4.88
2022-08-26T10:08:49.833Z,4.90
2022-08-26T10:11:31.277Z,5.10
2022-08-26T10:14:01.502Z,5.20
2022-08-26T10:16:35.870Z,5.82
2022-08-26T10:19:06.283Z,6.03
2022-08-26T10:21:36.888Z,5.70
2022-08-26T10:24:04.329Z,5.30
2022-08-26T10:26:50.656Z,5.15
2022-08-26T10:29:21.191Z,5.40
2022-08-26T10:31:55.117Z,5.57
2022-08-26T10:34:29.079Z,5.80
2022-08-26T10:37:13.810Z,5.37
2022-08-26T10:40:05.385Z,5.30
2022-08-26T10:42:32.332Z,5.23
2022-08-26T10:45:03.377Z,5.30
2022-08-26T10:47:45.473Z,5.50
2022-08-26T10:50:12.843Z,4.63
2022-08-26T10:52:58.080Z,4.63
2022-08-26T10:55:29.822Z,5.70
2022-08-26T10:58:26.455Z,5.17
2022-08-26T11:01:17.569Z,5.47
2022-08-26T11:03:58.898Z,4.80
2022-08-26T11:06:27.933Z,5.27
2022-08-26T11:08:59.576Z,5.70
2022-08-26T11:11:46.860Z,5.30
2022-08-26T11:14:29.872Z,5.90
2022-08-26T11:16:58.954Z,5.23
2022-08-26T11:19:57.051Z,6.20
2022-08-26T11:22:24.713Z,5.93
2022-08-26T11:24:57.166Z,5.77
2022-08-26T11:27:24.184Z,5.90
2022-08-26T11:30:02.616Z,6.13
2022-08-26T11:32:35.187Z,6.53
2022-08-26T11:35:04.594Z,6.10
2022-08-26T11:37:42.496Z,6.80
2022-08-26T11:40:17.941Z,6.28
2022-08-26T11:42:49.563Z,6.65
2022-08-26T11:45:18.497Z,7.30
2022-08-26T11:47:46.508Z,7.40
2022-08-26T11:50:20.182Z,7.30
2022-08-26T11:53:01.992Z,6.87
2022-08-26T11:55:29.749Z,7.57
2022-08-26T11:57:57.855Z,7.50
2022-08-26T12:00:26.467Z,7.47
2022-08-26T12:02:53.426Z,7.30
2022-08-26T12:05:26.817Z,7.03
2022-08-26T12:07:59.310Z,6.20
2022-08-26T12:10:33.628Z,6.78
2022-08-26T12:13:01.057Z,6.22
2022-08-26T12:15:29.522Z,7.05
2022-08-26T12:17:56.810Z,6.53
2022-08-26T12:20:46.444Z,6.10
2022-08-26T12:23:22.795Z,6.40
2022-08-26T12:25:51.975Z,6.40
2022-08-26T12:28:19.480Z,6.13
2022-08-26T12:30:59.771Z,6.72
2022-08-26T12:33:27.893Z,6.82
2022-08-26T12:35:56.402Z,6.70
2022-08-26T12:38:23.937Z,7.50
2022-08-26T12:40:50.431Z,7.43
2022-08-26T12:43:36.136Z,7.38
2022-08-26T12:46:04.582Z,7.00
2022-08-26T12:48:35.974Z,7.85
2022-08-26T12:51:03.091Z,6.72
2022-08-26T12:53:31.648Z,7.60
2022-08-26T12:56:18.513Z,7.15
2022-08-26T12:58:45.163Z,7.63
2022-08-26T13:01:11.676Z,7.50
2022-08-26T13:03:46.350Z,7.20
2022-08-26T13:06:16.783Z,8.10
2022-08-26T13:08:58.473Z,8.43
2022-08-26T13:11:24.848Z,7.67
2022-08-26T13:13:53.516Z,8.90
2022-08-26T13:16:20.803Z,8.73
2022-08-26T13:18:51.687Z,8.93
2022-08-26T13:21:19.577Z,8.53
2022-08-26T13:23:46.304Z,8.93
2022-08-26T13:26:12.775Z,9.80
2022-08-26T13:28:39.280Z,10.23
2022-08-26T13:31:06.299Z,10.97
2022-08-26T13:33:33.272Z,10.90
2022-08-26T13:36:00.379Z,10.07
2022-08-26T13:38:33.629Z,8.57
2022-08-26T13:41:00.720Z,8.70
2022-08-26T13:43:27.577Z,8.83
2022-08-26T13:45:54.224Z,8.83
2022-08-26T13:48:23.356Z,8.47
2022-08-26T13:50:50.001Z,8.40
2022-08-26T13:53:16.905Z,8.37
2022-08-26T13:55:43.426Z,7.90
2022-08-26T13:58:10.732Z,7.60
2022-08-26T14:00:37.905Z,9.33
2022-08-26T14:03:04.765Z,8.43
2022-08-26T14:05:31.215Z,9.53
2022-08-26T14:07:57.644Z,8.77
2022-08-26T14:10:24.598Z,9.80
2022-08-26T14:12:51.149Z,9.37
2022-08-26T14:15:18.609Z,9.63
2022-08-26T14:17:46.601Z,9.90
2022-08-26T14:20:14.539Z,14.37
2022-08-26T14:22:52.139Z,11.67
2022-08-26T14:25:29.444Z,14.50
2022-08-26T14:27:56.857Z,11.03
2022-08-26T14:30:23.282Z,11.67
2022-08-26T14:32:51.772Z,11.73
2022-08-26T14:35:20.388Z,11.53
2022-08-26T14:37:47.095Z,12.43
2022-08-26T14:40:14.045Z,11.70
2022-08-26T14:42:41.527Z,12.13
2022-08-26T14:45:09.575Z,12.73
2022-08-26T14:47:35.925Z,11.83
2022-08-26T14:50:02.271Z,11.60
2022-08-26T14:52:29.618Z,11.60
2022-08-26T14:54:56.030Z,12.17
2022-08-26T14:57:22.440Z,10.23
2022-08-26T14:59:50.475Z,10.47
2022-08-26T15:02:32.368Z,10.97
2022-08-26T15:05:00.146Z,10.73
2022-08-26T15:07:26.517Z,10.37
2022-08-26T15:09:53.048Z,12.03
2022-08-26T15:12:19.478Z,12.03
2022-08-26T15:14:45.879Z,11.27
2022-08-26T15:17:12.970Z,12.27
2022-08-26T15:19:39.345Z,11.23
2022-08-26T15:22:05.835Z,10.87
2022-08-26T15:24:32.187Z,12.07
2022-08-26T15:26:58.612Z,11.77
2022-08-26T15:29:25.098Z,12.60
2022-08-26T15:31:51.681Z,12.60
2022-08-26T15:34:21.792Z,12.20
2022-08-26T15:36:48.234Z,13.17
2022-08-26T15:39:15.550Z,13.97
2022-08-26T15:41:41.924Z,13.10
2022-08-26T15:44:09.078Z,14.90
2022-08-26T15:46:35.671Z,15.00
2022-08-26T15:49:04.346Z,13.80
2022-08-26T15:51:32.225Z,14.73
2022-08-26T15:53:58.709Z,17.13
2022-08-26T15:56:26.179Z,16.10
2022-08-26T15:58:54.917Z,16.83
2022-08-26T16:01:27.100Z,17.73
2022-08-26T16:03:54.699Z,19.37
2022-08-26T16:06:23.260Z,19.37
2022-08-26T16:08:50.019Z,18.80
2022-08-26T16:11:18.844Z,17.97
2022-08-26T16:13:46.060Z,17.73
2022-08-26T16:16:12.552Z,17.63
2022-08-26T16:18:39.166Z,19.67
2022-08-26T16:21:13.133Z,17.00
2022-08-26T16:23:40.886Z,17.40
2022-08-26T16:26:14.220Z,16.33
2022-08-26T16:28:40.631Z,17.93
2022-08-26T16:31:07.251Z,17.60
2022-08-26T16:33:33.697Z,17.83
2022-08-26T16:36:00.159Z,18.80
2022-08-26T16:38:26.728Z,17.57
2022-08-26T16:40:53.099Z,19.77
2022-08-26T16:43:19.517Z,16.83
2022-08-26T16:45:45.953Z,16.83
2022-08-26T16:48:12.663Z,16.83
2022-08-26T16:50:40.655Z,18.93
2022-08-26T16:53:07.121Z,18.33
2022-08-26T16:55:34.134Z,17.77
2022-08-26T16:58:00.507Z,17.93
2022-08-26T17:00:28.141Z,17.07
2022-08-26T17:02:55.222Z,17.73
2022-08-26T17:05:22.794Z,17.63
2022-08-26T17:07:49.265Z,17.73
2022-08-26T17:10:15.678Z,17.40
2022-08-26T17:12:42.118Z,18.23
2022-08-26T17:15:09.518Z,17.70
2022-08-26T17:17:36.061Z,17.80
2022-08-26T17:20:08.784Z,17.23
2022-08-26T17:22:35.868Z,18.00
2022-08-26T17:25:02.763Z,19.23
2022-08-26T17:27:30.111Z,19.17
2022-08-26T17:29:56.489Z,19.30
2022-08-26T17:32:22.999Z,19.73
2022-08-26T17:34:49.387Z,19.67
2022-08-26T17:37:16.795Z,18.47
2022-08-26T17:39:43.985Z,18.20
2022-08-26T17:42:11.836Z,18.80
2022-08-26T17:44:38.516Z,18.80
2022-08-26T17:47:06.579Z,18.73
2022-08-26T17:49:33.208Z,18.33
2022-08-26T17:52:00.090Z,19.73
2022-08-26T17:54:27.478Z,20.90
2022-08-26T17:56:57.149Z,20.80
2022-08-26T17:59:23.614Z,21.50
2022-08-26T18:01:58.598Z,21.70
2022-08-26T18:04:25.090Z,20.73
2022-08-26T18:06:51.480Z,21.50
2022-08-26T18:09:17.933Z,21.87
2022-08-26T18:11:44.310Z,20.97
2022-08-26T18:14:10.741Z,22.10
2022-08-26T18:16:41.592Z,22.37
2022-08-26T18:19:08.267Z,22.23
2022-08-26T18:21:36.186Z,21.20
2022-08-26T18:24:03.209Z,23.47
2022-08-26T18:26:31.306Z,22.57
2022-08-26T18:28:57.825Z,22.30
2022-08-26T18:31:24.595Z,23.67
2022-08-26T18:33:51.420Z,22.43
2022-08-26T18:36:19.392Z,21.90
2022-08-26T18:38:46.650Z,23.23
2022-08-26T18:41:13.050Z,23.03
2022-08-26T18:43:39.567Z,22.03
2022-08-26T18:46:07.094Z,23.83
2022-08-26T18:48:33.645Z,23.97
2022-08-26T18:51:00.250Z,23.27
2022-08-26T18:53:27.409Z,23.13
2022-08-26T18:55:53.825Z,21.07
2022-08-26T18:58:20.556Z,21.20
2022-08-26T19:00:47.191Z,21.73
2022-08-26T19:03:19.133Z,20.07
2022-08-26T19:05:45.788Z,22.93
2022-08-26T19:08:12.268Z,21.57
2022-08-26T19:10:39.223Z,21.63
2022-08-26T19:13:07.038Z,20.87
2022-08-26T19:15:37.212Z,21.67
2022-08-26T19:18:03.727Z,21.13
2022-08-26T19:20:30.083Z,20.93
2022-08-26T19:22:59.669Z,20.93
2022-08-26T19:25:28.965Z,21.73
2022-08-26T19:27:55.364Z,21.37
2022-08-26T19:30:21.811Z,21.33
2022-08-26T19:32:48.181Z,21.27
2022-08-26T19:35:15.010Z,21.40
2022-08-26T19:37:41.585Z,21.90
2022-08-26T19:40:08.410Z,22.33
2022-08-26T19:42:34.955Z,20.10
2022-08-26T19:45:24.946Z,21.60
2022-08-26T19:47:52.905Z,22.10
2022-08-26T19:50:19.752Z,21.00
2022-08-26T19:52:46.137Z,21.77
2022-08-26T19:55:12.957Z,22.23
2022-08-26T19:57:40.151Z,21.03
2022-08-26T20:00:09.437Z,20.77
2022-08-26T20:02:36.175Z,21.20
2022-08-26T20:05:03.509Z,21.63
2022-08-26T20:07:29.878Z,21.33
2022-08-26T20:09:56.282Z,20.67
2022-08-26T20:12:22.867Z,20.87
2022-08-26T20:14:49.551Z,22.57
2022-08-26T20:17:17.015Z,23.20
2022-08-26T20:20:02.198Z,23.13
2022-08-26T20:22:28.832Z,21.80
2022-08-26T20:24:55.419Z,23.03
2022-08-26T20:27:30.795Z,22.40
2022-08-26T20:30:05.635Z,22.87
2022-08-26T20:32:35.490Z,22.47
2022-08-26T20:35:02.303Z,23.53
2022-08-26T20:37:29.220Z,22.97
2022-08-26T20:39:55.819Z,22.57
2022-08-26T20:42:22.210Z,21.80
2022-08-26T20:44:54.649Z,22.70
2022-08-26T20:47:21.592Z,22.23
2022-08-26T20:49:48.084Z,21.20
2022-08-26T20:52:18.660Z,22.83
2022-08-26T20:54:45.037Z,23.10
2022-08-26T20:57:11.575Z,21.87
2022-08-26T20:59:38.006Z,23.03
2022-08-26T21:02:04.378Z,24.53
2022-08-26T21:04:30.786Z,22.57
2022-08-26T21:06:58.251Z,24.20
2022-08-26T21:09:25.623Z,23.70
2022-08-26T21:11:52.692Z,22.60
2022-08-26T21:14:20.400Z,24.40
2022-08-26T21:16:47.075Z,23.83
2022-08-26T21:19:14.972Z,25.33
2022-08-26T21:21:41.943Z,23.43
2022-08-26T21:24:08.711Z,25.40
2022-08-26T21:26:35.188Z,24.37
2022-08-26T21:29:02.456Z,24.00
2022-08-26T21:31:29.737Z,25.23
2022-08-26T21:33:56.486Z,25.93
2022-08-26T21:36:22.994Z,25.07
2022-08-26T21:38:49.543Z,24.67
2022-08-26T21:41:19.327Z,25.00
2022-08-26T21:43:46.714Z,24.77
2022-08-26T21:46:15.465Z,24.83
2022-08-26T21:48:46.596Z,24.77
2022-08-26T21:51:16.223Z,26.70
2022-08-26T21:53:42.897Z,26.27
2022-08-26T21:56:11.511Z,26.50
2022-08-26T21:58:38.177Z,26.87
2022-08-26T22:01:07.551Z,27.83
2022-08-26T22:03:35.210Z,25.73
2022-08-26T22:06:13.621Z,26.33
2022-08-26T22:08:40.050Z,27.90
2022-08-26T22:11:06.470Z,26.37
2022-08-26T22:13:34.364Z,26.37
2022-08-26T22:16:01.290Z,25.67
2022-08-26T22:18:28.804Z,25.37
2022-08-26T22:20:58.244Z,24.83
2022-08-26T22:23:24.655Z,26.13
2022-08-26T22:25:51.102Z,27.00
2022-08-26T22:28:17.584Z,26.33
2022-08-26T22:30:44.948Z,25.17
2022-08-26T22:33:11.404Z,26.43
2022-08-26T22:35:38.514Z,26.50
2022-08-26T22:38:04.910Z,27.53
2022-08-26T22:40:31.480Z,27.83
2022-08-26T22:43:00.220Z,26.50
2022-08-26T22:45:27.298Z,25.17
2022-08-26T22:47:53.782Z,26.63
2022-08-26T22:50:20.171Z,26.60
2022-08-26T22:52:46.548Z,25.60
2022-08-26T22:55:12.926Z,26.17
2022-08-26T22:57:39.323Z,25.60
2022-08-26T23:00:06.301Z,26.43
2022-08-26T23:02:32.924Z,25.17
2022-08-26T23:04:59.306Z,25.73
2022-08-26T23:07:25.704Z,26.40
2022-08-26T23:09:52.089Z,26.67
2022-08-26T23:12:18.482Z,26.47
2022-08-26T23:14:44.911Z,25.27
2022-08-26T23:17:11.788Z,24.07
2022-08-26T23:19:38.144Z,24.00
2022-08-26T23:22:04.589Z,25.07
2022-08-26T23:24:31.018Z,24.60
2022-08-26T23:26:57.795Z,24.37
2022-08-26T23:29:24.166Z,25.10
2022-08-26T23:31:50.729Z,26.20
2022-08-26T23:34:35.807Z,24.93
2022-08-26T23:37:02.865Z,24.60
2022-08-26T23:39:32.872Z,27.00
2022-08-26T23:42:01.589Z,27.77
2022-08-26T23:44:30.421Z,25.70
2022-08-26T23:46:57.796Z,27.33
2022-08-26T23:49:24.745Z,25.70
2022-08-26T23:52:09.953Z,25.47
2022-08-26T23:54:36.631Z,27.13
2022-08-26T23:57:03.277Z,28.20
2022-08-26T23:59:29.718Z,29.23
